createdAt,value
2023-04-28T00:00:30.826Z,63.75
2023-04-28T00:02:59.019Z,63.32
2023-04-28T00:05:28.400Z,63.35
2023-04-28T00:07:56.389Z,63.59
2023-04-28T00:10:24.260Z,63.64
2023-04-28T00:12:52.187Z,63.42
2023-04-28T00:15:20.175Z,63.16
2023-04-28T00:17:48.104Z,63.63
2023-04-28T00:20:16.009Z,63.66
2023-04-28T00:22:45.276Z,63.38
2023-04-28T00:25:13.135Z,63.49
2023-04-28T00:27:40.990Z,63.65
2023-04-28T00:30:10.194Z,63.45
2023-04-28T00:32:38.221Z,63.50
2023-04-28T00:35:07.068Z,63.10
2023-04-28T00:37:37.543Z,63.69
2023-04-28T00:40:08.362Z,63.78
2023-04-28T00:42:36.288Z,63.20
2023-04-28T00:45:06.578Z,63.51
2023-04-28T00:47:34.759Z,63.28
2023-04-28T00:50:02.717Z,63.68
2023-04-28T00:52:30.733Z,63.40
2023-04-28T00:54:58.691Z,63.30
2023-04-28T00:57:28.018Z,63.51
2023-04-28T00:59:56.068Z,63.54
2023-04-28T01:02:24.042Z,63.46
2023-04-28T01:04:52.690Z,63.40
2023-04-28T01:07:21.129Z,63.33
2023-04-28T01:09:49.204Z,63.53
2023-04-28T01:12:17.089Z,63.52
2023-04-28T01:14:46.355Z,63.66
2023-04-28T01:17:14.233Z,63.78
2023-04-28T01:19:42.118Z,63.55
2023-04-28T01:22:10.820Z,63.99
2023-04-28T01:24:40.207Z,63.95
2023-04-28T01:27:08.062Z,63.92
2023-04-28T01:29:35.986Z,63.99
2023-04-28T01:32:03.887Z,64.09
2023-04-28T01:34:31.831Z,64.23
2023-04-28T01:36:59.672Z,63.88
2023-04-28T01:39:27.548Z,64.22
2023-04-28T01:41:56.809Z,64.26
2023-04-28T01:44:24.681Z,64.38
2023-04-28T01:46:52.534Z,64.30
2023-04-28T01:49:20.378Z,64.58
2023-04-28T01:51:48.239Z,64.33
2023-04-28T01:54:16.518Z,64.54
2023-04-28T01:56:44.669Z,64.61
2023-04-28T01:59:14.197Z,64.66
2023-04-28T02:01:42.078Z,64.43
2023-04-28T02:04:10.063Z,64.48
2023-04-28T02:06:38.032Z,64.43
2023-04-28T02:09:05.865Z,64.78
2023-04-28T02:11:33.750Z,64.64
2023-04-28T02:14:01.657Z,64.97
2023-04-28T02:16:30.924Z,65.00
2023-04-28T02:18:58.868Z,65.02
2023-04-28T02:21:27.922Z,65.09
2023-04-28T02:23:56.066Z,64.69
2023-04-28T02:26:24.427Z,64.80
2023-04-28T02:28:52.301Z,65.13
2023-04-28T02:31:20.240Z,65.06
2023-04-28T02:33:49.539Z,64.78
2023-04-28T02:36:17.673Z,64.98
2023-04-28T02:38:45.555Z,65.21
2023-04-28T02:41:15.032Z,64.93
2023-04-28T02:43:42.915Z,64.74
2023-04-28T02:46:11.321Z,65.04
2023-04-28T02:48:39.284Z,64.92
2023-04-28T02:51:08.541Z,64.72
2023-04-28T02:53:36.380Z,64.80
2023-04-28T02:56:04.714Z,64.98
2023-04-28T02:58:32.551Z,64.80
2023-04-28T03:01:00.585Z,64.67
2023-04-28T03:03:28.726Z,65.18
2023-04-28T03:05:56.968Z,65.20
2023-04-28T03:08:26.777Z,65.09
2023-04-28T03:10:54.728Z,65.26
2023-04-28T03:13:22.659Z,64.92
2023-04-28T03:15:51.222Z,65.21
2023-04-28T03:18:19.245Z,65.43
2023-04-28T03:20:47.123Z,65.12
2023-04-28T03:23:14.996Z,65.14
2023-04-28T03:25:44.295Z,65.45
2023-04-28T03:28:12.125Z,65.56
2023-04-28T03:30:39.974Z,65.40
2023-04-28T03:33:07.954Z,65.26
2023-04-28T03:35:35.881Z,65.50
2023-04-28T03:38:03.801Z,65.53
2023-04-28T03:40:31.724Z,65.59
2023-04-28T03:43:03.928Z,65.70
2023-04-28T03:45:32.618Z,65.83
2023-04-28T03:48:00.546Z,66.05
2023-04-28T03:50:28.470Z,66.09
2023-04-28T03:52:56.407Z,66.02
2023-04-28T03:55:24.305Z,66.38
2023-04-28T03:57:52.140Z,66.22
2023-04-28T04:00:21.553Z,66.50
2023-04-28T04:02:49.704Z,66.34
2023-04-28T04:05:18.094Z,66.20
2023-04-28T04:07:46.088Z,66.35
2023-04-28T04:10:13.993Z,66.37
2023-04-28T04:12:41.840Z,66.38
2023-04-28T04:15:10.806Z,66.27
2023-04-28T04:17:40.083Z,66.11
2023-04-28T04:20:09.391Z,66.10
2023-04-28T04:22:37.438Z,66.08
2023-04-28T04:25:06.051Z,66.15
2023-04-28T04:27:33.891Z,66.14
2023-04-28T04:30:02.216Z,66.43
2023-04-28T04:32:30.144Z,66.22
2023-04-28T04:34:59.397Z,66.47
2023-04-28T04:37:27.483Z,66.46
2023-04-28T04:39:55.346Z,66.56
2023-04-28T04:42:25.809Z,66.35
2023-04-28T04:44:53.986Z,66.28
2023-04-28T04:47:21.824Z,66.32
2023-04-28T04:49:49.999Z,66.30
2023-04-28T04:52:19.515Z,66.40
2023-04-28T04:54:47.456Z,66.69
2023-04-28T04:57:15.365Z,66.22
2023-04-28T04:59:43.213Z,66.07
2023-04-28T05:02:11.338Z,66.16
2023-04-28T05:04:39.583Z,66.14
2023-04-28T05:07:07.488Z,66.11
2023-04-28T05:09:36.747Z,66.38
2023-04-28T05:12:04.933Z,66.20
2023-04-28T05:14:32.815Z,66.01
2023-04-28T05:17:00.777Z,66.03
2023-04-28T05:19:28.649Z,66.16
2023-04-28T05:21:56.622Z,66.32
2023-04-28T05:24:24.685Z,66.30
2023-04-28T05:26:54.436Z,65.98
2023-04-28T05:29:22.565Z,65.96
2023-04-28T05:31:50.501Z,66.08
2023-04-28T05:34:18.530Z,65.93
2023-04-28T05:36:46.596Z,66.21
2023-04-28T05:39:14.450Z,65.87
2023-04-28T05:41:42.390Z,65.89
2023-04-28T05:44:11.866Z,66.22
2023-04-28T05:46:39.975Z,65.77
2023-04-28T05:49:07.895Z,66.11
2023-04-28T05:51:35.997Z,66.06
2023-04-28T05:54:03.890Z,65.79
2023-04-28T05:56:31.791Z,66.00
2023-04-28T05:59:02.151Z,65.77
2023-04-28T06:01:31.441Z,65.75
2023-04-28T06:03:59.849Z,65.63
2023-04-28T06:06:28.431Z,65.88
2023-04-28T06:08:56.275Z,66.01
2023-04-28T06:11:24.163Z,65.68
2023-04-28T06:13:52.238Z,66.04
2023-04-28T06:16:20.654Z,65.69
2023-04-28T06:18:50.066Z,65.69
2023-04-28T06:21:18.103Z,65.73
2023-04-28T06:23:46.092Z,65.64
2023-04-28T06:26:14.470Z,65.89
2023-04-28T06:28:43.678Z,65.74
2023-04-28T06:31:11.602Z,65.81
2023-04-28T06:33:39.489Z,65.63
2023-04-28T06:36:09.322Z,65.71
2023-04-28T06:38:37.566Z,65.50
2023-04-28T06:41:05.633Z,65.84
2023-04-28T06:43:33.592Z,65.76
2023-04-28T06:46:01.576Z,65.73
2023-04-28T06:48:29.442Z,65.74
2023-04-28T06:50:57.330Z,65.61
2023-04-28T06:53:27.228Z,65.33
2023-04-28T06:55:55.093Z,65.76
2023-04-28T06:58:22.970Z,65.74
2023-04-28T07:00:50.943Z,65.62
2023-04-28T07:03:18.961Z,65.52
2023-04-28T07:05:46.921Z,65.64
2023-04-28T07:08:14.979Z,65.36
2023-04-28T07:10:44.593Z,65.15
2023-04-28T07:13:12.645Z,65.15
2023-04-28T07:15:40.680Z,65.46
2023-04-28T07:18:08.590Z,65.14
2023-04-28T07:20:36.542Z,65.12
2023-04-28T07:23:04.448Z,64.97
2023-04-28T07:25:32.632Z,65.32
2023-04-28T07:28:04.322Z,64.86
2023-04-28T07:30:32.221Z,65.15
2023-04-28T07:33:00.134Z,64.89
2023-04-28T07:35:28.218Z,65.20
2023-04-28T07:37:56.201Z,64.69
2023-04-28T07:40:24.246Z,64.55
2023-04-28T07:42:52.570Z,64.80
2023-04-28T07:45:22.034Z,64.74
2023-04-28T07:47:49.973Z,64.89
2023-04-28T07:50:18.165Z,64.62
2023-04-28T07:52:46.278Z,64.68
2023-04-28T07:55:14.260Z,64.93
2023-04-28T07:57:42.471Z,64.82
2023-04-28T08:00:12.120Z,64.65
2023-04-28T08:02:41.601Z,64.55
2023-04-28T08:05:10.759Z,64.59
2023-04-28T08:07:38.893Z,64.62
2023-04-28T08:10:07.828Z,64.81
2023-04-28T08:12:35.793Z,64.67
2023-04-28T08:15:04.026Z,64.81
2023-04-28T08:17:32.158Z,64.57
2023-04-28T08:20:01.431Z,64.87
2023-04-28T08:22:29.328Z,64.34
2023-04-28T08:24:57.188Z,64.44
2023-04-28T08:27:25.839Z,64.42
2023-04-28T08:29:53.879Z,64.28
2023-04-28T08:32:21.876Z,64.46
2023-04-28T08:34:50.113Z,64.51
2023-04-28T08:37:23.458Z,64.12
2023-04-28T08:39:52.763Z,64.51
2023-04-28T08:42:20.794Z,64.19
2023-04-28T08:44:49.237Z,64.27
2023-04-28T08:47:20.135Z,63.96
2023-04-28T08:49:51.006Z,64.13
2023-04-28T08:52:19.221Z,64.15
2023-04-28T08:54:51.505Z,64.11
2023-04-28T08:57:22.423Z,64.17
2023-04-28T09:00:10.593Z,64.04
2023-04-28T09:02:42.644Z,64.09
2023-04-28T09:05:13.134Z,64.12
2023-04-28T09:07:57.309Z,64.09
2023-04-28T09:10:30.348Z,63.74
2023-04-28T09:12:58.835Z,63.85
2023-04-28T09:15:27.872Z,63.77
2023-04-28T09:17:55.947Z,63.92
2023-04-28T09:20:24.556Z,63.34
2023-04-28T09:23:02.219Z,63.49
2023-04-28T09:25:33.079Z,63.86
2023-04-28T09:28:01.237Z,63.90
2023-04-28T09:30:40.114Z,63.75
2023-04-28T09:33:18.523Z,63.44
2023-04-28T09:35:52.917Z,63.35
2023-04-28T09:38:21.379Z,63.34
2023-04-28T09:40:56.164Z,63.70
2023-04-28T09:43:34.179Z,63.11
2023-04-28T09:46:05.784Z,63.05
2023-04-28T09:48:36.764Z,62.99
2023-04-28T09:51:06.163Z,63.07
2023-04-28T09:53:35.517Z,63.04
2023-04-28T09:56:06.515Z,62.61
2023-04-28T09:58:35.564Z,62.78
2023-04-28T10:01:03.688Z,62.85
2023-04-28T10:03:33.666Z,62.37
2023-04-28T10:06:01.961Z,62.11
2023-04-28T10:08:29.868Z,62.38
2023-04-28T10:11:03.680Z,61.92
2023-04-28T10:13:33.009Z,62.38
2023-04-28T10:16:00.874Z,61.88
2023-04-28T10:18:28.769Z,61.95
2023-04-28T10:20:58.790Z,62.26
2023-04-28T10:23:47.033Z,62.16
2023-04-28T10:26:15.618Z,61.94
2023-04-28T10:28:48.566Z,61.84
2023-04-28T10:31:17.623Z,61.55
2023-04-28T10:33:45.777Z,61.56
2023-04-28T10:36:38.549Z,61.88
2023-04-28T10:39:10.726Z,61.39
2023-04-28T10:41:38.715Z,61.52
2023-04-28T10:44:44.131Z,61.63
2023-04-28T10:47:13.229Z,61.20
2023-04-28T10:50:09.454Z,60.63
2023-04-28T10:52:52.416Z,60.87
2023-04-28T10:55:36.312Z,60.40
2023-04-28T10:58:32.538Z,60.71
2023-04-28T11:01:29.836Z,60.22
2023-04-28T11:04:04.984Z,60.41
2023-04-28T11:06:34.753Z,60.22
2023-04-28T11:09:03.394Z,60.29
2023-04-28T11:11:32.652Z,60.07
2023-04-28T11:14:33.821Z,60.07
2023-04-28T11:17:04.230Z,59.69
2023-04-28T11:19:33.149Z,59.37
2023-04-28T11:22:02.114Z,59.46
2023-04-28T11:24:30.625Z,59.25
2023-04-28T11:26:58.713Z,59.12
2023-04-28T11:29:33.395Z,58.64
2023-04-28T11:32:02.986Z,58.35
2023-04-28T11:34:30.907Z,58.37
2023-04-28T11:36:58.824Z,57.96
2023-04-28T11:39:28.537Z,57.64
2023-04-28T11:41:56.429Z,57.67
2023-04-28T11:44:25.081Z,56.93
2023-04-28T11:46:56.001Z,57.06
2023-04-28T11:49:25.614Z,56.66
2023-04-28T11:51:53.661Z,56.79
2023-04-28T11:54:22.174Z,56.53
2023-04-28T11:56:50.120Z,56.33
2023-04-28T11:59:18.224Z,56.31
2023-04-28T12:01:47.796Z,56.42
2023-04-28T12:04:16.151Z,56.36
2023-04-28T12:06:45.558Z,55.97
2023-04-28T12:09:17.220Z,55.80
2023-04-28T12:11:57.909Z,55.85
2023-04-28T12:14:26.435Z,55.90
2023-04-28T12:16:54.304Z,56.02
2023-04-28T12:19:22.181Z,55.86
2023-04-28T12:22:07.579Z,55.85
2023-04-28T12:24:36.310Z,55.28
2023-04-28T12:27:21.758Z,55.29
2023-04-28T12:29:49.794Z,55.64
2023-04-28T12:32:17.864Z,55.78
2023-04-28T12:34:46.415Z,55.38
2023-04-28T12:37:15.978Z,55.49
2023-04-28T12:39:44.213Z,55.53
2023-04-28T12:42:12.303Z,55.59
2023-04-28T12:44:40.924Z,55.43
2023-04-28T12:47:10.789Z,55.39
2023-04-28T12:49:38.798Z,55.19
2023-04-28T12:52:06.950Z,54.48
2023-04-28T12:54:36.819Z,54.25
2023-04-28T12:57:05.404Z,54.09
2023-04-28T12:59:33.579Z,53.52
2023-04-28T13:02:01.499Z,53.21
2023-04-28T13:04:30.046Z,52.54
2023-04-28T13:06:58.552Z,52.31
2023-04-28T13:09:26.485Z,51.81
2023-04-28T13:11:55.740Z,51.70
2023-04-28T13:14:24.104Z,51.85
2023-04-28T13:16:52.536Z,51.88
2023-04-28T13:19:20.448Z,52.17
2023-04-28T13:21:48.396Z,52.50
2023-04-28T13:24:16.338Z,52.53
2023-04-28T13:26:45.340Z,52.76
2023-04-28T13:29:14.830Z,53.05
2023-04-28T13:31:43.127Z,53.14
2023-04-28T13:34:16.068Z,52.66
2023-04-28T13:36:44.490Z,52.56
2023-04-28T13:39:14.833Z,52.66
2023-04-28T13:41:43.258Z,52.51
2023-04-28T13:44:11.382Z,52.40
2023-04-28T13:46:40.671Z,52.75
2023-04-28T13:49:08.594Z,52.41
2023-04-28T13:51:36.479Z,52.34
2023-04-28T13:54:05.440Z,52.14
2023-04-28T13:56:33.441Z,52.05
2023-04-28T13:59:01.426Z,52.52
2023-04-28T14:01:29.508Z,52.30
2023-04-28T14:03:59.104Z,51.95
2023-04-28T14:06:27.903Z,51.23
2023-04-28T14:08:55.889Z,51.61
2023-04-28T14:11:23.830Z,51.72
2023-04-28T14:13:52.289Z,52.22
2023-04-28T14:16:20.401Z,52.21
2023-04-28T14:18:48.350Z,51.94
2023-04-28T14:21:17.661Z,51.80
2023-04-28T14:23:45.605Z,52.08
2023-04-28T14:26:13.499Z,50.79
2023-04-28T14:28:42.277Z,50.52
2023-04-28T14:31:10.601Z,48.95
2023-04-28T14:33:38.527Z,49.36
2023-04-28T14:36:06.497Z,49.14
2023-04-28T14:38:36.685Z,48.90
2023-04-28T14:41:06.228Z,49.10
2023-04-28T14:43:34.116Z,49.06
2023-04-28T14:46:02.160Z,49.07
2023-04-28T14:48:30.139Z,48.27
2023-04-28T14:50:58.685Z,48.13
2023-04-28T14:53:26.653Z,48.16
2023-04-28T14:56:02.059Z,47.64
2023-04-28T14:58:39.000Z,47.65
2023-04-28T15:01:07.423Z,47.46
2023-04-28T15:03:35.921Z,48.09
2023-04-28T15:06:05.161Z,48.12
2023-04-28T15:08:33.287Z,48.04
2023-04-28T15:11:02.576Z,47.97
2023-04-28T15:13:30.553Z,48.37
2023-04-28T15:15:58.488Z,48.48
2023-04-28T15:18:26.386Z,48.70
2023-04-28T15:20:54.306Z,49.45
2023-04-28T15:23:22.255Z,49.60
2023-04-28T15:25:53.489Z,49.71
2023-04-28T15:28:23.657Z,50.25
2023-04-28T15:30:51.524Z,49.47
2023-04-28T15:33:19.644Z,49.82
2023-04-28T15:35:47.666Z,49.15
2023-04-28T15:38:16.259Z,48.54
2023-04-28T15:40:44.484Z,48.92
2023-04-28T15:43:13.373Z,49.19
2023-04-28T15:45:42.679Z,48.47
2023-04-28T15:48:12.176Z,47.55
2023-04-28T15:50:40.185Z,47.34
2023-04-28T15:53:08.106Z,47.23
2023-04-28T15:55:36.098Z,45.71
2023-04-28T15:58:04.223Z,44.54
2023-04-28T16:00:32.495Z,43.43
2023-04-28T16:03:02.213Z,43.45
2023-04-28T16:05:30.298Z,43.90
2023-04-28T16:07:58.190Z,44.47
2023-04-28T16:10:26.532Z,45.24
2023-04-28T16:12:54.432Z,46.52
2023-04-28T16:15:22.919Z,46.97
2023-04-28T16:17:51.996Z,47.71
2023-04-28T16:20:21.616Z,48.44
2023-04-28T16:22:49.541Z,48.90
2023-04-28T16:25:17.497Z,49.53
2023-04-28T16:27:45.378Z,49.80
2023-04-28T16:30:13.423Z,50.20
2023-04-28T16:32:41.702Z,50.68
2023-04-28T16:35:15.150Z,50.77
2023-04-28T16:37:44.741Z,51.33
2023-04-28T16:40:13.451Z,51.52
2023-04-28T16:42:42.134Z,51.75
2023-04-28T16:45:11.516Z,52.02
2023-04-28T16:47:42.464Z,53.03
2023-04-28T16:50:11.777Z,52.06
2023-04-28T16:52:39.793Z,50.85
2023-04-28T16:55:10.496Z,49.28
2023-04-28T16:57:38.423Z,48.24
2023-04-28T17:00:07.721Z,47.04
2023-04-28T17:02:35.981Z,46.83
2023-04-28T17:05:04.214Z,46.27
2023-04-28T17:07:32.109Z,46.22
2023-04-28T17:10:00.268Z,45.94
2023-04-28T17:12:29.606Z,45.33
2023-04-28T17:14:57.499Z,45.68
2023-04-28T17:17:25.942Z,45.90
2023-04-28T17:19:53.975Z,46.13
2023-04-28T17:22:22.252Z,46.39
2023-04-28T17:24:50.251Z,46.39
2023-04-28T17:27:18.118Z,46.28
2023-04-28T17:29:47.609Z,46.14
2023-04-28T17:32:15.753Z,45.98
2023-04-28T17:34:43.631Z,46.17
2023-04-28T17:37:11.543Z,46.05
2023-04-28T17:39:39.459Z,46.43
2023-04-28T17:42:07.446Z,46.65
2023-04-28T17:44:35.672Z,47.33
2023-04-28T17:47:05.001Z,47.96
2023-04-28T17:49:32.925Z,48.22
2023-04-28T17:52:00.890Z,48.61
2023-04-28T17:54:28.814Z,48.91
2023-04-28T17:56:57.219Z,49.63
2023-04-28T17:59:25.090Z,49.94
2023-04-28T18:01:56.139Z,50.24
2023-04-28T18:04:25.802Z,50.89
2023-04-28T18:06:53.684Z,50.68
2023-04-28T18:09:21.574Z,51.19
2023-04-28T18:11:49.440Z,51.45
2023-04-28T18:14:18.490Z,51.47
2023-04-28T18:16:46.642Z,51.61
2023-04-28T18:19:14.648Z,52.06
2023-04-28T18:21:43.888Z,52.14
2023-04-28T18:24:11.795Z,52.23
2023-04-28T18:26:39.709Z,52.51
2023-04-28T18:29:07.570Z,52.70
2023-04-28T18:31:35.457Z,53.04
2023-04-28T18:34:03.953Z,53.37
2023-04-28T18:36:33.091Z,53.49
2023-04-28T18:39:03.514Z,53.77
2023-04-28T18:41:32.334Z,53.89
2023-04-28T18:44:01.325Z,54.46
2023-04-28T18:46:29.531Z,54.70
2023-04-28T18:48:57.618Z,54.62
2023-04-28T18:51:25.584Z,54.72
2023-04-28T18:53:53.473Z,55.15
2023-04-28T18:56:23.728Z,55.52
2023-04-28T18:58:51.812Z,55.39
2023-04-28T19:01:19.961Z,55.65
2023-04-28T19:03:47.998Z,56.11
2023-04-28T19:06:17.494Z,56.16
2023-04-28T19:08:45.400Z,55.95
2023-04-28T19:11:13.245Z,56.26
2023-04-28T19:13:44.605Z,56.07
2023-04-28T19:16:12.710Z,56.32
2023-04-28T19:18:42.023Z,56.63
2023-04-28T19:21:12.143Z,56.40
2023-04-28T19:23:40.865Z,56.31
2023-04-28T19:26:09.086Z,56.39
2023-04-28T19:28:37.039Z,56.85
2023-04-28T19:31:06.388Z,56.85
2023-04-28T19:33:34.283Z,56.77
2023-04-28T19:36:05.282Z,56.63
2023-04-28T19:38:34.542Z,56.61
2023-04-28T19:41:02.545Z,57.02
2023-04-28T19:43:30.726Z,56.60
2023-04-28T19:45:58.712Z,56.88
2023-04-28T19:48:27.977Z,56.81
2023-04-28T19:50:56.420Z,57.07
2023-04-28T19:53:24.300Z,57.19
2023-04-28T19:55:52.226Z,56.98
2023-04-28T19:58:20.811Z,57.05
2023-04-28T20:00:48.940Z,57.02
2023-04-28T20:03:17.359Z,57.28
2023-04-28T20:05:47.109Z,57.20
2023-04-28T20:08:14.986Z,57.36
2023-04-28T20:10:43.011Z,57.04
2023-04-28T20:13:10.891Z,57.13
2023-04-28T20:15:39.146Z,56.82
2023-04-28T20:18:07.100Z,56.89
2023-04-28T20:20:35.027Z,56.99
2023-04-28T20:23:04.328Z,56.92
2023-04-28T20:25:32.197Z,56.88
2023-04-28T20:28:00.156Z,57.16
2023-04-28T20:30:28.400Z,57.00
2023-04-28T20:32:56.375Z,57.03
2023-04-28T20:35:24.551Z,57.14
2023-04-28T20:37:52.780Z,57.01
2023-04-28T20:40:22.835Z,56.98
2023-04-28T20:42:50.862Z,57.28
2023-04-28T20:45:19.427Z,56.99
2023-04-28T20:47:47.470Z,56.98
2023-04-28T20:50:15.655Z,57.00
2023-04-28T20:52:43.504Z,57.29
2023-04-28T20:55:11.547Z,57.24
2023-04-28T20:57:40.816Z,57.16
2023-04-28T21:00:10.674Z,57.33
2023-04-28T21:02:38.764Z,57.00
2023-04-28T21:05:07.318Z,57.05
2023-04-28T21:07:35.224Z,57.02
2023-04-28T21:10:03.101Z,57.23
2023-04-28T21:12:30.970Z,56.96
2023-04-28T21:15:00.885Z,57.39
2023-04-28T21:17:28.783Z,56.97
2023-04-28T21:19:57.406Z,57.37
2023-04-28T21:22:26.222Z,57.30
2023-04-28T21:24:54.558Z,57.12
2023-04-28T21:27:22.434Z,56.94
2023-04-28T21:29:50.622Z,57.44
2023-04-28T21:32:20.318Z,57.35
2023-04-28T21:34:49.634Z,57.18
2023-04-28T21:37:17.757Z,57.19
2023-04-28T21:39:45.643Z,56.99
2023-04-28T21:42:13.526Z,57.41
2023-04-28T21:44:41.871Z,57.48
2023-04-28T21:47:09.817Z,57.16
2023-04-28T21:49:39.139Z,57.47
2023-04-28T21:52:07.470Z,57.16
2023-04-28T21:54:35.800Z,57.67
2023-04-28T21:57:03.740Z,57.39
2023-04-28T21:59:31.615Z,57.64
2023-04-28T22:01:59.625Z,57.66
2023-04-28T22:04:27.839Z,57.62
2023-04-28T22:06:57.276Z,57.77
2023-04-28T22:09:25.131Z,57.73
2023-04-28T22:11:53.110Z,57.42
2023-04-28T22:14:35.623Z,57.40
2023-04-28T22:17:08.069Z,57.43
2023-04-28T22:19:36.037Z,57.47
2023-04-28T22:22:05.476Z,57.52
2023-04-28T22:24:33.460Z,57.70
2023-04-28T22:27:01.292Z,57.70
2023-04-28T22:29:29.761Z,57.74
2023-04-28T22:31:58.700Z,57.65
2023-04-28T22:34:26.658Z,57.47
2023-04-28T22:36:54.514Z,57.61
2023-04-28T22:39:25.135Z,57.75
2023-04-28T22:41:53.154Z,58.00
2023-04-28T22:44:21.160Z,57.55
2023-04-28T22:46:49.152Z,57.64
2023-04-28T22:49:17.142Z,57.55
2023-04-28T22:51:45.007Z,57.54
2023-04-28T22:54:13.746Z,57.59
2023-04-28T22:56:43.014Z,57.88
2023-04-28T22:59:10.827Z,57.96
2023-04-28T23:01:40.040Z,57.69
2023-04-28T23:04:08.249Z,58.09
2023-04-28T23:06:36.267Z,57.84
2023-04-28T23:09:04.731Z,57.90
2023-04-28T23:11:32.589Z,58.17
2023-04-28T23:14:02.026Z,58.11
2023-04-28T23:16:29.988Z,58.19
2023-04-28T23:18:57.923Z,58.11
2023-04-28T23:21:26.352Z,58.37
2023-04-28T23:23:54.214Z,58.42
2023-04-28T23:26:22.104Z,58.84
2023-04-28T23:28:49.992Z,58.41
2023-04-28T23:31:19.410Z,58.55
2023-04-28T23:33:47.284Z,58.43
2023-04-28T23:36:15.185Z,58.56
2023-04-28T23:38:43.044Z,58.75
2023-04-28T23:41:10.993Z,58.60
2023-04-28T23:43:38.929Z,58.46
2023-04-28T23:46:06.997Z,58.57
2023-04-28T23:48:36.558Z,58.43
2023-04-28T23:51:04.409Z,58.60
2023-04-28T23:53:32.248Z,58.37
2023-04-28T23:56:00.124Z,58.32
2023-04-28T23:58:27.976Z,58.47
